sensor_id;sensor_type;location;lat;lon;timestamp;P1;durP1;ratioP1;P2;durP2;ratioP2
64199;SDS011;50516;52.272;5.136;2022-12-29T00:01:16;7.30;;;4.63;;
64199;SDS011;50516;52.272;5.136;2022-12-29T00:03:42;6.93;;;4.60;;
64199;SDS011;50516;52.272;5.136;2022-12-29T00:06:07;7.00;;;4.75;;
64199;SDS011;50516;52.272;5.136;2022-12-29T00:08:32;7.20;;;4.82;;
64199;SDS011;50516;52.272;5.136;2022-12-29T00:11:07;7.20;;;4.93;;
64199;SDS011;50516;52.272;5.136;2022-12-29T00:13:43;5.60;;;4.30;;
64199;SDS011;50516;52.272;5.136;2022-12-29T00:16:27;6.25;;;4.25;;
64199;SDS011;50516;52.272;5.136;2022-12-29T00:18:53;5.43;;;4.13;;
64199;SDS011;50516;52.272;5.136;2022-12-29T00:21:20;6.40;;;4.15;;
64199;SDS011;50516;52.272;5.136;2022-12-29T00:24:05;6.03;;;3.75;;
64199;SDS011;50516;52.272;5.136;2022-12-29T00:26:48;6.20;;;3.80;;
64199;SDS011;50516;52.272;5.136;2022-12-29T00:29:36;6.72;;;3.63;;
64199;SDS011;50516;52.272;5.136;2022-12-29T00:32:20;5.38;;;3.70;;
64199;SDS011;50516;52.272;5.136;2022-12-29T00:35:04;5.72;;;3.85;;
64199;SDS011;50516;52.272;5.136;2022-12-29T00:37:35;5.07;;;3.53;;
64199;SDS011;50516;52.272;5.136;2022-12-29T00:40:23;7.35;;;3.88;;
64199;SDS011;50516;52.272;5.136;2022-12-29T00:43:07;6.07;;;3.60;;
64199;SDS011;50516;52.272;5.136;2022-12-29T00:45:51;4.93;;;3.20;;
64199;SDS011;50516;52.272;5.136;2022-12-29T00:48:16;5.70;;;3.75;;
64199;SDS011;50516;52.272;5.136;2022-12-29T00:51:04;4.95;;;3.30;;
64199;SDS011;50516;52.272;5.136;2022-12-29T00:53:30;4.03;;;3.03;;
64199;SDS011;50516;52.272;5.136;2022-12-29T00:55:56;6.28;;;3.40;;
64199;SDS011;50516;52.272;5.136;2022-12-29T00:58:22;7.40;;;3.78;;
64199;SDS011;50516;52.272;5.136;2022-12-29T01:00:47;4.82;;;3.33;;
64199;SDS011;50516;52.272;5.136;2022-12-29T01:03:13;6.47;;;3.75;;
64199;SDS011;50516;52.272;5.136;2022-12-29T01:05:38;5.65;;;3.20;;
64199;SDS011;50516;52.272;5.136;2022-12-29T01:08:03;4.18;;;3.15;;
64199;SDS011;50516;52.272;5.136;2022-12-29T01:10:29;7.22;;;3.78;;
64199;SDS011;50516;52.272;5.136;2022-12-29T01:12:54;4.57;;;2.83;;
64199;SDS011;50516;52.272;5.136;2022-12-29T01:15:20;4.78;;;3.17;;
64199;SDS011;50516;52.272;5.136;2022-12-29T01:17:45;5.80;;;3.13;;
64199;SDS011;50516;52.272;5.136;2022-12-29T01:20:11;6.93;;;3.40;;
64199;SDS011;50516;52.272;5.136;2022-12-29T01:22:37;6.25;;;3.13;;
64199;SDS011;50516;52.272;5.136;2022-12-29T01:25:04;6.13;;;3.33;;
64199;SDS011;50516;52.272;5.136;2022-12-29T01:27:30;5.00;;;3.25;;
64199;SDS011;50516;52.272;5.136;2022-12-29T01:29:55;4.45;;;2.83;;
64199;SDS011;50516;52.272;5.136;2022-12-29T01:32:21;4.22;;;2.90;;
64199;SDS011;50516;52.272;5.136;2022-12-29T01:34:47;8.73;;;4.22;;
64199;SDS011;50516;52.272;5.136;2022-12-29T01:37:12;5.97;;;3.05;;
64199;SDS011;50516;52.272;5.136;2022-12-29T01:39:38;5.68;;;2.88;;
64199;SDS011;50516;52.272;5.136;2022-12-29T01:42:03;6.13;;;3.10;;
64199;SDS011;50516;52.272;5.136;2022-12-29T01:45:11;5.88;;;3.05;;
64199;SDS011;50516;52.272;5.136;2022-12-29T01:47:22;6.35;;;3.17;;
64199;SDS011;50516;52.272;5.136;2022-12-29T01:49:55;5.15;;;2.88;;
64199;SDS011;50516;52.272;5.136;2022-12-29T01:52:24;4.07;;;2.92;;
64199;SDS011;50516;52.272;5.136;2022-12-29T01:54:54;4.05;;;2.85;;
64199;SDS011;50516;52.272;5.136;2022-12-29T01:57:26;5.38;;;3.13;;
64199;SDS011;50516;52.272;5.136;2022-12-29T01:59:56;6.22;;;2.90;;
64199;SDS011;50516;52.272;5.136;2022-12-29T02:02:26;7.40;;;2.70;;
64199;SDS011;50516;52.272;5.136;2022-12-29T02:04:52;2.67;;;2.40;;
64199;SDS011;50516;52.272;5.136;2022-12-29T02:07:21;4.03;;;2.50;;
64199;SDS011;50516;52.272;5.136;2022-12-29T02:09:50;5.50;;;2.60;;
64199;SDS011;50516;52.272;5.136;2022-12-29T02:12:18;4.85;;;2.42;;
64199;SDS011;50516;52.272;5.136;2022-12-29T02:14:46;5.15;;;2.47;;
64199;SDS011;50516;52.272;5.136;2022-12-29T02:17:20;2.50;;;2.30;;
64199;SDS011;50516;52.272;5.136;2022-12-29T02:41:14;7.40;;;2.47;;
64199;SDS011;50516;52.272;5.136;2022-12-29T02:49:22;4.88;;;2.10;;
64199;SDS011;50516;52.272;5.136;2022-12-29T02:52:15;5.45;;;2.25;;
64199;SDS011;50516;52.272;5.136;2022-12-29T02:54:44;7.88;;;2.35;;
64199;SDS011;50516;52.272;5.136;2022-12-29T02:57:10;7.18;;;2.30;;
64199;SDS011;50516;52.272;5.136;2022-12-29T02:59:38;9.63;;;3.17;;
64199;SDS011;50516;52.272;5.136;2022-12-29T03:02:07;5.13;;;2.58;;
64199;SDS011;50516;52.272;5.136;2022-12-29T03:10:29;10.55;;;2.65;;
64199;SDS011;50516;52.272;5.136;2022-12-29T03:13:01;7.00;;;2.50;;
64199;SDS011;50516;52.272;5.136;2022-12-29T03:16:13;4.13;;;2.20;;
64199;SDS011;50516;52.272;5.136;2022-12-29T03:24:52;6.60;;;2.58;;
64199;SDS011;50516;52.272;5.136;2022-12-29T03:27:27;10.10;;;2.72;;
64199;SDS011;50516;52.272;5.136;2022-12-29T03:30:04;11.10;;;2.78;;
64199;SDS011;50516;52.272;5.136;2022-12-29T03:32:33;8.60;;;2.42;;
64199;SDS011;50516;52.272;5.136;2022-12-29T03:35:03;9.82;;;2.70;;
64199;SDS011;50516;52.272;5.136;2022-12-29T03:37:35;14.30;;;3.00;;
64199;SDS011;50516;52.272;5.136;2022-12-29T03:40:04;11.55;;;3.67;;
64199;SDS011;50516;52.272;5.136;2022-12-29T03:42:31;14.52;;;3.08;;
64199;SDS011;50516;52.272;5.136;2022-12-29T03:45:00;12.82;;;2.88;;
64199;SDS011;50516;52.272;5.136;2022-12-29T03:47:25;12.32;;;3.38;;
64199;SDS011;50516;52.272;5.136;2022-12-29T03:49:51;9.50;;;3.03;;
64199;SDS011;50516;52.272;5.136;2022-12-29T03:52:17;14.02;;;3.33;;
64199;SDS011;50516;52.272;5.136;2022-12-29T03:54:43;12.00;;;2.90;;
64199;SDS011;50516;52.272;5.136;2022-12-29T03:57:09;11.60;;;3.15;;
64199;SDS011;50516;52.272;5.136;2022-12-29T03:59:36;8.48;;;2.55;;
64199;SDS011;50516;52.272;5.136;2022-12-29T04:02:01;9.63;;;2.80;;
64199;SDS011;50516;52.272;5.136;2022-12-29T04:04:26;10.82;;;2.92;;
64199;SDS011;50516;52.272;5.136;2022-12-29T04:06:52;8.25;;;2.85;;
64199;SDS011;50516;52.272;5.136;2022-12-29T04:09:17;12.60;;;3.20;;
64199;SDS011;50516;52.272;5.136;2022-12-29T04:11:43;12.32;;;3.20;;
64199;SDS011;50516;52.272;5.136;2022-12-29T04:14:08;7.38;;;2.63;;
64199;SDS011;50516;52.272;5.136;2022-12-29T04:16:34;9.38;;;2.60;;
64199;SDS011;50516;52.272;5.136;2022-12-29T04:19:00;11.77;;;2.97;;
64199;SDS011;50516;52.272;5.136;2022-12-29T04:21:26;6.10;;;2.40;;
64199;SDS011;50516;52.272;5.136;2022-12-29T04:23:52;8.38;;;2.70;;
64199;SDS011;50516;52.272;5.136;2022-12-29T04:26:17;11.38;;;3.00;;
64199;SDS011;50516;52.272;5.136;2022-12-29T04:28:43;10.82;;;3.25;;
64199;SDS011;50516;52.272;5.136;2022-12-29T04:31:08;9.18;;;3.10;;
64199;SDS011;50516;52.272;5.136;2022-12-29T04:33:34;9.80;;;2.47;;
64199;SDS011;50516;52.272;5.136;2022-12-29T04:35:59;6.55;;;2.00;;
64199;SDS011;50516;52.272;5.136;2022-12-29T04:38:24;12.98;;;3.28;;
64199;SDS011;50516;52.272;5.136;2022-12-29T04:40:50;7.78;;;2.30;;
64199;SDS011;50516;52.272;5.136;2022-12-29T04:43:16;5.18;;;1.88;;
64199;SDS011;50516;52.272;5.136;2022-12-29T04:45:44;10.27;;;3.05;;
64199;SDS011;50516;52.272;5.136;2022-12-29T04:48:11;11.43;;;3.70;;
64199;SDS011;50516;52.272;5.136;2022-12-29T04:50:37;14.15;;;3.05;;
64199;SDS011;50516;52.272;5.136;2022-12-29T04:53:03;10.68;;;3.03;;
64199;SDS011;50516;52.272;5.136;2022-12-29T04:55:28;14.38;;;3.30;;
64199;SDS011;50516;52.272;5.136;2022-12-29T04:57:54;13.88;;;3.90;;
64199;SDS011;50516;52.272;5.136;2022-12-29T05:00:19;12.18;;;3.95;;
64199;SDS011;50516;52.272;5.136;2022-12-29T05:02:45;15.65;;;3.20;;
64199;SDS011;50516;52.272;5.136;2022-12-29T05:05:11;14.15;;;3.83;;
64199;SDS011;50516;52.272;5.136;2022-12-29T05:07:36;15.38;;;3.67;;
64199;SDS011;50516;52.272;5.136;2022-12-29T05:10:02;14.07;;;3.25;;
64199;SDS011;50516;52.272;5.136;2022-12-29T05:12:31;10.93;;;3.00;;
64199;SDS011;50516;52.272;5.136;2022-12-29T05:14:58;9.88;;;2.65;;
64199;SDS011;50516;52.272;5.136;2022-12-29T05:17:23;15.88;;;3.80;;
64199;SDS011;50516;52.272;5.136;2022-12-29T05:19:49;13.55;;;3.17;;
64199;SDS011;50516;52.272;5.136;2022-12-29T05:22:14;16.15;;;3.67;;
64199;SDS011;50516;52.272;5.136;2022-12-29T05:24:39;9.32;;;3.85;;
64199;SDS011;50516;52.272;5.136;2022-12-29T05:27:05;14.30;;;3.35;;
64199;SDS011;50516;52.272;5.136;2022-12-29T05:29:30;10.02;;;3.15;;
64199;SDS011;50516;52.272;5.136;2022-12-29T05:31:56;16.83;;;4.38;;
64199;SDS011;50516;52.272;5.136;2022-12-29T05:34:21;13.23;;;3.53;;
64199;SDS011;50516;52.272;5.136;2022-12-29T05:36:46;14.02;;;3.67;;
64199;SDS011;50516;52.272;5.136;2022-12-29T05:39:12;17.85;;;4.57;;
64199;SDS011;50516;52.272;5.136;2022-12-29T05:41:37;12.95;;;2.83;;
64199;SDS011;50516;52.272;5.136;2022-12-29T05:44:02;14.77;;;3.70;;
64199;SDS011;50516;52.272;5.136;2022-12-29T05:46:28;12.40;;;3.35;;
64199;SDS011;50516;52.272;5.136;2022-12-29T05:48:53;18.77;;;4.78;;
64199;SDS011;50516;52.272;5.136;2022-12-29T05:51:18;11.63;;;3.45;;
64199;SDS011;50516;52.272;5.136;2022-12-29T05:53:44;21.25;;;4.05;;
64199;SDS011;50516;52.272;5.136;2022-12-29T05:56:09;13.43;;;3.63;;
64199;SDS011;50516;52.272;5.136;2022-12-29T05:58:34;15.52;;;4.13;;
64199;SDS011;50516;52.272;5.136;2022-12-29T06:01:00;14.68;;;3.15;;
64199;SDS011;50516;52.272;5.136;2022-12-29T06:03:25;14.35;;;3.30;;
64199;SDS011;50516;52.272;5.136;2022-12-29T06:05:51;16.38;;;4.38;;
64199;SDS011;50516;52.272;5.136;2022-12-29T06:08:16;21.90;;;3.30;;
64199;SDS011;50516;52.272;5.136;2022-12-29T06:10:42;9.68;;;3.35;;
64199;SDS011;50516;52.272;5.136;2022-12-29T06:13:07;20.70;;;5.70;;
64199;SDS011;50516;52.272;5.136;2022-12-29T06:15:32;16.10;;;4.30;;
64199;SDS011;50516;52.272;5.136;2022-12-29T06:17:58;14.23;;;3.38;;
64199;SDS011;50516;52.272;5.136;2022-12-29T06:20:24;14.88;;;3.88;;
64199;SDS011;50516;52.272;5.136;2022-12-29T06:22:49;16.90;;;3.95;;
64199;SDS011;50516;52.272;5.136;2022-12-29T06:25:15;17.00;;;4.15;;
64199;SDS011;50516;52.272;5.136;2022-12-29T06:27:40;22.83;;;3.97;;
64199;SDS011;50516;52.272;5.136;2022-12-29T06:30:06;14.43;;;4.95;;
64199;SDS011;50516;52.272;5.136;2022-12-29T06:32:32;22.08;;;4.28;;
64199;SDS011;50516;52.272;5.136;2022-12-29T06:34:57;11.82;;;3.40;;
64199;SDS011;50516;52.272;5.136;2022-12-29T06:37:23;13.88;;;3.33;;
64199;SDS011;50516;52.272;5.136;2022-12-29T06:39:48;19.73;;;4.65;;
64199;SDS011;50516;52.272;5.136;2022-12-29T06:42:13;18.23;;;3.85;;
64199;SDS011;50516;52.272;5.136;2022-12-29T06:44:39;22.58;;;3.90;;
64199;SDS011;50516;52.272;5.136;2022-12-29T06:47:04;17.05;;;3.53;;
64199;SDS011;50516;52.272;5.136;2022-12-29T06:49:30;18.70;;;3.65;;
64199;SDS011;50516;52.272;5.136;2022-12-29T06:51:55;15.07;;;4.97;;
64199;SDS011;50516;52.272;5.136;2022-12-29T06:54:23;20.13;;;4.50;;
64199;SDS011;50516;52.272;5.136;2022-12-29T06:56:48;14.48;;;3.80;;
64199;SDS011;50516;52.272;5.136;2022-12-29T06:59:13;13.18;;;4.43;;
64199;SDS011;50516;52.272;5.136;2022-12-29T07:01:39;18.65;;;3.60;;
64199;SDS011;50516;52.272;5.136;2022-12-29T07:04:04;12.00;;;3.65;;
64199;SDS011;50516;52.272;5.136;2022-12-29T07:06:29;21.60;;;5.00;;
64199;SDS011;50516;52.272;5.136;2022-12-29T07:08:55;26.63;;;4.70;;
64199;SDS011;50516;52.272;5.136;2022-12-29T07:11:22;20.92;;;4.50;;
64199;SDS011;50516;52.272;5.136;2022-12-29T07:13:47;13.13;;;3.28;;
64199;SDS011;50516;52.272;5.136;2022-12-29T07:16:13;17.23;;;3.75;;
64199;SDS011;50516;52.272;5.136;2022-12-29T07:18:38;19.80;;;3.83;;
64199;SDS011;50516;52.272;5.136;2022-12-29T07:21:04;15.75;;;4.22;;
64199;SDS011;50516;52.272;5.136;2022-12-29T07:23:30;15.77;;;4.20;;
64199;SDS011;50516;52.272;5.136;2022-12-29T07:25:59;21.17;;;4.45;;
64199;SDS011;50516;52.272;5.136;2022-12-29T07:28:25;25.60;;;5.32;;
64199;SDS011;50516;52.272;5.136;2022-12-29T07:30:51;25.33;;;4.22;;
64199;SDS011;50516;52.272;5.136;2022-12-29T07:33:16;13.75;;;3.47;;
64199;SDS011;50516;52.272;5.136;2022-12-29T07:35:42;18.40;;;3.90;;
64199;SDS011;50516;52.272;5.136;2022-12-29T07:38:07;14.77;;;3.85;;
64199;SDS011;50516;52.272;5.136;2022-12-29T07:40:33;16.20;;;4.55;;
64199;SDS011;50516;52.272;5.136;2022-12-29T07:42:58;21.95;;;4.93;;
64199;SDS011;50516;52.272;5.136;2022-12-29T07:45:23;15.30;;;4.07;;
64199;SDS011;50516;52.272;5.136;2022-12-29T07:47:49;12.85;;;4.15;;
64199;SDS011;50516;52.272;5.136;2022-12-29T07:50:15;11.32;;;3.20;;
64199;SDS011;50516;52.272;5.136;2022-12-29T07:52:40;13.95;;;3.22;;
64199;SDS011;50516;52.272;5.136;2022-12-29T07:55:06;8.32;;;2.67;;
64199;SDS011;50516;52.272;5.136;2022-12-29T07:57:31;13.57;;;3.35;;
64199;SDS011;50516;52.272;5.136;2022-12-29T07:59:57;11.20;;;3.03;;
64199;SDS011;50516;52.272;5.136;2022-12-29T08:02:22;9.80;;;3.15;;
64199;SDS011;50516;52.272;5.136;2022-12-29T08:04:47;11.18;;;3.83;;
64199;SDS011;50516;52.272;5.136;2022-12-29T08:07:13;14.70;;;4.47;;
64199;SDS011;50516;52.272;5.136;2022-12-29T08:09:38;19.33;;;3.63;;
64199;SDS011;50516;52.272;5.136;2022-12-29T08:12:03;13.43;;;3.33;;
64199;SDS011;50516;52.272;5.136;2022-12-29T08:14:29;11.95;;;3.80;;
64199;SDS011;50516;52.272;5.136;2022-12-29T08:16:54;15.38;;;4.65;;
64199;SDS011;50516;52.272;5.136;2022-12-29T08:19:19;13.85;;;3.47;;
64199;SDS011;50516;52.272;5.136;2022-12-29T08:21:45;13.32;;;3.35;;
64199;SDS011;50516;52.272;5.136;2022-12-29T08:24:10;19.73;;;4.72;;
64199;SDS011;50516;52.272;5.136;2022-12-29T08:26:35;16.65;;;4.25;;
64199;SDS011;50516;52.272;5.136;2022-12-29T08:29:01;18.33;;;3.65;;
64199;SDS011;50516;52.272;5.136;2022-12-29T08:31:26;24.13;;;5.43;;
64199;SDS011;50516;52.272;5.136;2022-12-29T08:33:51;16.48;;;3.28;;
64199;SDS011;50516;52.272;5.136;2022-12-29T08:36:17;16.27;;;4.07;;
64199;SDS011;50516;52.272;5.136;2022-12-29T08:38:42;15.52;;;3.33;;
64199;SDS011;50516;52.272;5.136;2022-12-29T08:41:07;18.10;;;4.50;;
64199;SDS011;50516;52.272;5.136;2022-12-29T08:43:33;23.98;;;5.45;;
64199;SDS011;50516;52.272;5.136;2022-12-29T08:45:58;25.33;;;4.03;;
64199;SDS011;50516;52.272;5.136;2022-12-29T08:48:24;21.38;;;4.72;;
64199;SDS011;50516;52.272;5.136;2022-12-29T08:50:50;16.85;;;3.72;;
64199;SDS011;50516;52.272;5.136;2022-12-29T08:53:16;23.50;;;4.55;;
64199;SDS011;50516;52.272;5.136;2022-12-29T08:55:44;15.70;;;3.55;;
64199;SDS011;50516;52.272;5.136;2022-12-29T08:58:11;15.77;;;3.65;;
64199;SDS011;50516;52.272;5.136;2022-12-29T09:00:39;21.38;;;3.63;;
64199;SDS011;50516;52.272;5.136;2022-12-29T09:03:05;13.25;;;4.22;;
64199;SDS011;50516;52.272;5.136;2022-12-29T09:05:30;15.80;;;4.43;;
64199;SDS011;50516;52.272;5.136;2022-12-29T09:07:55;16.58;;;4.18;;
64199;SDS011;50516;52.272;5.136;2022-12-29T09:10:21;16.70;;;3.83;;
64199;SDS011;50516;52.272;5.136;2022-12-29T09:12:46;18.35;;;4.53;;
64199;SDS011;50516;52.272;5.136;2022-12-29T09:15:11;24.23;;;4.75;;
64199;SDS011;50516;52.272;5.136;2022-12-29T09:17:37;25.60;;;4.53;;
64199;SDS011;50516;52.272;5.136;2022-12-29T09:20:06;17.30;;;4.45;;
64199;SDS011;50516;52.272;5.136;2022-12-29T09:22:33;15.98;;;4.25;;
64199;SDS011;50516;52.272;5.136;2022-12-29T09:24:59;18.00;;;4.03;;
64199;SDS011;50516;52.272;5.136;2022-12-29T09:27:24;14.57;;;4.72;;
64199;SDS011;50516;52.272;5.136;2022-12-29T09:29:49;19.25;;;4.72;;
64199;SDS011;50516;52.272;5.136;2022-12-29T09:32:15;17.63;;;3.88;;
64199;SDS011;50516;52.272;5.136;2022-12-29T09:34:40;14.80;;;3.50;;
64199;SDS011;50516;52.272;5.136;2022-12-29T09:37:05;14.43;;;3.65;;
64199;SDS011;50516;52.272;5.136;2022-12-29T09:39:30;22.92;;;4.63;;
64199;SDS011;50516;52.272;5.136;2022-12-29T09:47:26;21.55;;;5.45;;
64199;SDS011;50516;52.272;5.136;2022-12-29T09:52:26;18.35;;;4.82;;
64199;SDS011;50516;52.272;5.136;2022-12-29T10:02:43;15.60;;;3.70;;
64199;SDS011;50516;52.272;5.136;2022-12-29T10:08:33;9.68;;;3.72;;
64199;SDS011;50516;52.272;5.136;2022-12-29T10:16:26;23.40;;;5.25;;
64199;SDS011;50516;52.272;5.136;2022-12-29T10:19:19;20.23;;;4.85;;
64199;SDS011;50516;52.272;5.136;2022-12-29T10:24:46;25.33;;;5.28;;
64199;SDS011;50516;52.272;5.136;2022-12-29T10:27:14;18.45;;;4.35;;
64199;SDS011;50516;52.272;5.136;2022-12-29T10:29:45;24.30;;;5.10;;
64199;SDS011;50516;52.272;5.136;2022-12-29T10:34:58;16.17;;;5.35;;
64199;SDS011;50516;52.272;5.136;2022-12-29T10:37:34;21.05;;;4.22;;
64199;SDS011;50516;52.272;5.136;2022-12-29T10:40:15;22.70;;;4.50;;
64199;SDS011;50516;52.272;5.136;2022-12-29T10:42:46;18.83;;;4.82;;
64199;SDS011;50516;52.272;5.136;2022-12-29T10:45:17;25.70;;;4.90;;
64199;SDS011;50516;52.272;5.136;2022-12-29T10:47:51;24.13;;;5.20;;
64199;SDS011;50516;52.272;5.136;2022-12-29T10:50:20;24.25;;;5.32;;
64199;SDS011;50516;52.272;5.136;2022-12-29T10:52:47;25.00;;;4.93;;
64199;SDS011;50516;52.272;5.136;2022-12-29T10:55:15;31.90;;;6.72;;
64199;SDS011;50516;52.272;5.136;2022-12-29T10:57:46;24.25;;;5.85;;
64199;SDS011;50516;52.272;5.136;2022-12-29T11:00:13;25.50;;;5.28;;
64199;SDS011;50516;52.272;5.136;2022-12-29T11:08:38;25.23;;;5.90;;
64199;SDS011;50516;52.272;5.136;2022-12-29T11:11:09;29.05;;;5.75;;
64199;SDS011;50516;52.272;5.136;2022-12-29T11:13:36;30.67;;;7.20;;
64199;SDS011;50516;52.272;5.136;2022-12-29T11:16:15;26.08;;;6.43;;
64199;SDS011;50516;52.272;5.136;2022-12-29T11:18:53;37.67;;;7.22;;
64199;SDS011;50516;52.272;5.136;2022-12-29T11:21:32;28.15;;;6.80;;
64199;SDS011;50516;52.272;5.136;2022-12-29T11:24:05;26.13;;;6.10;;
64199;SDS011;50516;52.272;5.136;2022-12-29T11:26:43;29.67;;;6.68;;
64199;SDS011;50516;52.272;5.136;2022-12-29T11:31:41;28.42;;;5.75;;
64199;SDS011;50516;52.272;5.136;2022-12-29T11:34:08;29.20;;;5.97;;
64199;SDS011;50516;52.272;5.136;2022-12-29T11:36:33;22.13;;;5.53;;
64199;SDS011;50516;52.272;5.136;2022-12-29T11:39:00;24.95;;;5.32;;
64199;SDS011;50516;52.272;5.136;2022-12-29T11:41:30;24.17;;;5.40;;
64199;SDS011;50516;52.272;5.136;2022-12-29T11:44:00;29.02;;;4.88;;
64199;SDS011;50516;52.272;5.136;2022-12-29T11:46:33;29.50;;;5.75;;
64199;SDS011;50516;52.272;5.136;2022-12-29T11:49:01;29.65;;;6.60;;
64199;SDS011;50516;52.272;5.136;2022-12-29T11:51:30;20.02;;;5.95;;
64199;SDS011;50516;52.272;5.136;2022-12-29T11:54:09;20.52;;;4.43;;
64199;SDS011;50516;52.272;5.136;2022-12-29T11:56:54;20.58;;;4.40;;
64199;SDS011;50516;52.272;5.136;2022-12-29T12:02:13;19.60;;;5.05;;
64199;SDS011;50516;52.272;5.136;2022-12-29T12:04:46;22.95;;;5.47;;
64199;SDS011;50516;52.272;5.136;2022-12-29T12:07:30;20.65;;;4.53;;
64199;SDS011;50516;52.272;5.136;2022-12-29T12:10:04;13.90;;;4.45;;
64199;SDS011;50516;52.272;5.136;2022-12-29T12:12:40;16.70;;;4.20;;
64199;SDS011;50516;52.272;5.136;2022-12-29T12:17:49;20.48;;;4.22;;
64199;SDS011;50516;52.272;5.136;2022-12-29T12:29:20;14.57;;;4.95;;
64199;SDS011;50516;52.272;5.136;2022-12-29T12:31:46;22.48;;;3.85;;
64199;SDS011;50516;52.272;5.136;2022-12-29T12:34:27;23.77;;;4.38;;
64199;SDS011;50516;52.272;5.136;2022-12-29T12:37:00;17.98;;;4.35;;
64199;SDS011;50516;52.272;5.136;2022-12-29T12:39:27;24.98;;;4.65;;
64199;SDS011;50516;52.272;5.136;2022-12-29T12:42:05;17.83;;;4.35;;
64199;SDS011;50516;52.272;5.136;2022-12-29T12:47:50;24.58;;;6.18;;
64199;SDS011;50516;52.272;5.136;2022-12-29T12:50:30;19.48;;;4.03;;
64199;SDS011;50516;52.272;5.136;2022-12-29T12:53:03;19.48;;;4.10;;
64199;SDS011;50516;52.272;5.136;2022-12-29T12:58:27;19.50;;;4.85;;
64199;SDS011;50516;52.272;5.136;2022-12-29T13:01:00;14.63;;;4.07;;
64199;SDS011;50516;52.272;5.136;2022-12-29T13:09:22;17.05;;;4.13;;
64199;SDS011;50516;52.272;5.136;2022-12-29T13:12:14;21.63;;;3.63;;
64199;SDS011;50516;52.272;5.136;2022-12-29T13:14:48;12.40;;;3.55;;
64199;SDS011;50516;52.272;5.136;2022-12-29T13:17:36;18.83;;;4.35;;
64199;SDS011;50516;52.272;5.136;2022-12-29T13:25:40;18.73;;;4.60;;
64199;SDS011;50516;52.272;5.136;2022-12-29T13:28:26;19.25;;;4.30;;
64199;SDS011;50516;52.272;5.136;2022-12-29T13:31:02;19.85;;;4.10;;
64199;SDS011;50516;52.272;5.136;2022-12-29T13:36:37;14.63;;;3.67;;
64199;SDS011;50516;52.272;5.136;2022-12-29T13:39:13;19.67;;;3.97;;
64199;SDS011;50516;52.272;5.136;2022-12-29T13:41:54;15.32;;;3.50;;
64199;SDS011;50516;52.272;5.136;2022-12-29T13:44:25;22.50;;;3.95;;
64199;SDS011;50516;52.272;5.136;2022-12-29T13:46:54;16.08;;;3.97;;
64199;SDS011;50516;52.272;5.136;2022-12-29T13:49:24;24.30;;;6.00;;
64199;SDS011;50516;52.272;5.136;2022-12-29T13:51:55;18.20;;;4.63;;
64199;SDS011;50516;52.272;5.136;2022-12-29T13:54:26;15.27;;;3.70;;
64199;SDS011;50516;52.272;5.136;2022-12-29T13:57:01;14.00;;;4.68;;
64199;SDS011;50516;52.272;5.136;2022-12-29T13:59:52;22.52;;;4.50;;
64199;SDS011;50516;52.272;5.136;2022-12-29T14:02:26;18.27;;;3.70;;
64199;SDS011;50516;52.272;5.136;2022-12-29T14:04:59;19.77;;;4.53;;
64199;SDS011;50516;52.272;5.136;2022-12-29T14:07:58;15.13;;;3.67;;
64199;SDS011;50516;52.272;5.136;2022-12-29T14:10:29;22.75;;;3.85;;
64199;SDS011;50516;52.272;5.136;2022-12-29T14:15:45;15.82;;;4.38;;
64199;SDS011;50516;52.272;5.136;2022-12-29T14:18:17;21.08;;;3.72;;
64199;SDS011;50516;52.272;5.136;2022-12-29T14:23:45;18.92;;;4.18;;
64199;SDS011;50516;52.272;5.136;2022-12-29T14:28:55;25.80;;;4.78;;
64199;SDS011;50516;52.272;5.136;2022-12-29T14:36:37;18.95;;;5.03;;
64199;SDS011;50516;52.272;5.136;2022-12-29T14:42:20;15.35;;;3.47;;
64199;SDS011;50516;52.272;5.136;2022-12-29T14:47:31;12.68;;;3.40;;
64199;SDS011;50516;52.272;5.136;2022-12-29T14:50:06;11.77;;;3.33;;
64199;SDS011;50516;52.272;5.136;2022-12-29T14:52:57;7.13;;;3.10;;
64199;SDS011;50516;52.272;5.136;2022-12-29T14:55:37;11.27;;;3.50;;
64199;SDS011;50516;52.272;5.136;2022-12-29T14:58:06;12.65;;;2.90;;
64199;SDS011;50516;52.272;5.136;2022-12-29T15:00:39;9.60;;;3.40;;
64199;SDS011;50516;52.272;5.136;2022-12-29T15:05:48;7.78;;;2.95;;
64199;SDS011;50516;52.272;5.136;2022-12-29T15:08:17;11.27;;;2.95;;
64199;SDS011;50516;52.272;5.136;2022-12-29T15:13:44;9.23;;;3.08;;
64199;SDS011;50516;52.272;5.136;2022-12-29T15:16:26;10.10;;;3.30;;
64199;SDS011;50516;52.272;5.136;2022-12-29T15:18:56;15.13;;;3.53;;
64199;SDS011;50516;52.272;5.136;2022-12-29T15:21:23;9.00;;;2.95;;
64199;SDS011;50516;52.272;5.136;2022-12-29T15:23:54;14.02;;;3.45;;
64199;SDS011;50516;52.272;5.136;2022-12-29T15:26:20;15.13;;;3.55;;
64199;SDS011;50516;52.272;5.136;2022-12-29T15:28:47;14.63;;;3.63;;
64199;SDS011;50516;52.272;5.136;2022-12-29T15:31:24;11.38;;;3.70;;
64199;SDS011;50516;52.272;5.136;2022-12-29T15:33:51;16.65;;;3.95;;
64199;SDS011;50516;52.272;5.136;2022-12-29T15:36:21;17.45;;;4.05;;
64199;SDS011;50516;52.272;5.136;2022-12-29T15:38:48;15.55;;;4.13;;
64199;SDS011;50516;52.272;5.136;2022-12-29T15:44:25;13.52;;;3.33;;
64199;SDS011;50516;52.272;5.136;2022-12-29T15:47:02;12.70;;;3.25;;
64199;SDS011;50516;52.272;5.136;2022-12-29T15:49:36;13.65;;;3.60;;
64199;SDS011;50516;52.272;5.136;2022-12-29T15:52:05;11.15;;;3.17;;
64199;SDS011;50516;52.272;5.136;2022-12-29T15:54:34;18.95;;;4.85;;
64199;SDS011;50516;52.272;5.136;2022-12-29T15:56:59;18.17;;;4.00;;
64199;SDS011;50516;52.272;5.136;2022-12-29T15:59:29;15.02;;;4.50;;
64199;SDS011;50516;52.272;5.136;2022-12-29T16:01:57;14.40;;;5.10;;
64199;SDS011;50516;52.272;5.136;2022-12-29T16:04:28;16.70;;;5.18;;
64199;SDS011;50516;52.272;5.136;2022-12-29T16:09:29;19.17;;;6.45;;
64199;SDS011;50516;52.272;5.136;2022-12-29T16:12:06;24.50;;;7.80;;
64199;SDS011;50516;52.272;5.136;2022-12-29T16:14:42;18.85;;;6.55;;
64199;SDS011;50516;52.272;5.136;2022-12-29T16:17:12;15.38;;;5.82;;
64199;SDS011;50516;52.272;5.136;2022-12-29T16:19:49;15.02;;;5.05;;
64199;SDS011;50516;52.272;5.136;2022-12-29T16:22:59;20.50;;;5.35;;
64199;SDS011;50516;52.272;5.136;2022-12-29T16:25:30;14.73;;;5.32;;
64199;SDS011;50516;52.272;5.136;2022-12-29T16:28:00;18.85;;;5.70;;
64199;SDS011;50516;52.272;5.136;2022-12-29T16:30:29;16.02;;;4.75;;
64199;SDS011;50516;52.272;5.136;2022-12-29T16:33:03;16.50;;;4.00;;
64199;SDS011;50516;52.272;5.136;2022-12-29T16:35:45;15.32;;;4.55;;
64199;SDS011;50516;52.272;5.136;2022-12-29T16:38:18;15.63;;;3.90;;
64199;SDS011;50516;52.272;5.136;2022-12-29T16:40:53;19.73;;;5.93;;
64199;SDS011;50516;52.272;5.136;2022-12-29T16:43:29;12.60;;;4.32;;
64199;SDS011;50516;52.272;5.136;2022-12-29T16:46:16;14.48;;;5.97;;
64199;SDS011;50516;52.272;5.136;2022-12-29T16:48:52;19.08;;;6.32;;
64199;SDS011;50516;52.272;5.136;2022-12-29T16:51:28;26.65;;;6.65;;
64199;SDS011;50516;52.272;5.136;2022-12-29T16:53:56;19.50;;;5.93;;
64199;SDS011;50516;52.272;5.136;2022-12-29T16:56:30;22.80;;;6.93;;
64199;SDS011;50516;52.272;5.136;2022-12-29T17:01:34;22.70;;;7.38;;
64199;SDS011;50516;52.272;5.136;2022-12-29T17:04:04;16.83;;;4.95;;
64199;SDS011;50516;52.272;5.136;2022-12-29T17:06:31;15.50;;;4.75;;
64199;SDS011;50516;52.272;5.136;2022-12-29T17:08:56;15.85;;;4.47;;
64199;SDS011;50516;52.272;5.136;2022-12-29T17:11:29;12.43;;;3.45;;
64199;SDS011;50516;52.272;5.136;2022-12-29T17:14:17;13.20;;;3.55;;
64199;SDS011;50516;52.272;5.136;2022-12-29T17:16:56;12.02;;;3.85;;
64199;SDS011;50516;52.272;5.136;2022-12-29T17:19:26;18.05;;;4.45;;